Island Park, ID

12:29 PM MDT on May 28, 2015 (GMT -0600)
Yellowstone | | Change Station
CLOSE
Current Station
Airport
Location: Yellowstone,
Elevation: 7835 ft
Nearby Weather Stations

Elev 7835 ft 44.54 °N, 110.42 °W | Updated 33 minutes ago

Overcast
Overcast
35 °F
Feels Like 35 °F
N
0
Wind Variable Wind from North
Gusts mph

Today
High -- | Low -- °F
--% Chance of Precip.
Yesterday
High -- | Low -- °F
Precip. -- in
5:46 AM 8:59 PM
Waxing Gibbous, 77% visible
Pressure 30.18 in
Visibility -9999.0 miles
Clouds
Dew Point 34 °F
Humidity 96%
Rainfall 0.42 in
Snow Depth Not available.
UV Not available.
Pollen 6.80 out of 12
Air Quality Not available.
Flu Activity Sporadic
METAR KP60 281756Z AUTO 00000KT 02/01 A3022 RMK AO1 SLP218 P0008 60032 T00170011 10022 20006 53008

More Conditions Fewer Conditions

Pressure 30.18 in
Visibility -9999.0 miles
Clouds
Dew Point 34 °F
Humidity 96%
Rainfall 0.42 in
Snow Depth Not available.
UV Not available.
Pollen 6.80 out of 12
Air Quality Not available.
Flu Activity Sporadic
METAR KP60 281756Z AUTO 00000KT 02/01 A3022 RMK AO1 SLP218 P0008 60032 T00170011 10022 20006 53008

More Conditions Fewer Conditions

10-Day Weather Forecast

Almanac

Astronomy

May. 28, 2015 Rise Set
Actual Time
Civil Twilight
Nautical Twilight
Astronomical Twilight
Moon
Length of Visible Light
Length of Day
Tomorrow will be .
, % of the Moon is Illuminated

Today's Extremes

State Highs State Lows

Community

WunderPhotos

Upload Photos

1,825,009 photos uploaded!

WunderBlogs® & News

Nearby

Air Quality

  Air Quality AQ Index Pollutant
Not available.

Snow Depth

Station Depth Elevation

Earthquake Activity

City Distance Mag. Time & Date
Minimum magnitude displayed is 2.5.

Coastal Water Temperatures

Place Temperature

Stations

Nearby Weather Stations

Station Location Temp. Windchill Dew Point Humidity Wind Precip. Elev Updated Type